sensor_id;sensor_type;location;lat;lon;timestamp;P1;durP1;ratioP1;P2;durP2;ratioP2
66609;SDS011;53468;48.276;14.416;2022-10-16T00:03:57;12.32;;;7.03;;
66609;SDS011;53468;48.276;14.416;2022-10-16T00:09:29;11.68;;;5.90;;
66609;SDS011;53468;48.276;14.416;2022-10-16T00:15:04;7.88;;;4.93;;
66609;SDS011;53468;48.276;14.416;2022-10-16T00:20:37;9.05;;;5.68;;
66609;SDS011;53468;48.276;14.416;2022-10-16T00:26:10;14.77;;;6.00;;
66609;SDS011;53468;48.276;14.416;2022-10-16T00:31:45;9.52;;;5.43;;
66609;SDS011;53468;48.276;14.416;2022-10-16T00:37:18;11.80;;;5.38;;
66609;SDS011;53468;48.276;14.416;2022-10-16T00:42:50;8.65;;;4.80;;
66609;SDS011;53468;48.276;14.416;2022-10-16T00:48:24;11.32;;;5.93;;
66609;SDS011;53468;48.276;14.416;2022-10-16T00:53:56;10.82;;;5.10;;
66609;SDS011;53468;48.276;14.416;2022-10-16T00:59:29;12.73;;;4.78;;
66609;SDS011;53468;48.276;14.416;2022-10-16T01:05:05;6.82;;;4.45;;
66609;SDS011;53468;48.276;14.416;2022-10-16T01:10:39;7.80;;;4.43;;
66609;SDS011;53468;48.276;14.416;2022-10-16T01:16:18;8.13;;;4.82;;
66609;SDS011;53468;48.276;14.416;2022-10-16T01:22:01;5.38;;;3.60;;
66609;SDS011;53468;48.276;14.416;2022-10-16T01:27:36;8.82;;;4.78;;
66609;SDS011;53468;48.276;14.416;2022-10-16T01:33:12;11.07;;;5.65;;
66609;SDS011;53468;48.276;14.416;2022-10-16T01:38:51;10.90;;;5.28;;
66609;SDS011;53468;48.276;14.416;2022-10-16T01:44:29;12.98;;;6.13;;
66609;SDS011;53468;48.276;14.416;2022-10-16T01:50:05;12.95;;;6.88;;
66609;SDS011;53468;48.276;14.416;2022-10-16T01:55:40;10.05;;;5.63;;
66609;SDS011;53468;48.276;14.416;2022-10-16T02:01:17;12.27;;;5.20;;
66609;SDS011;53468;48.276;14.416;2022-10-16T02:06:53;13.50;;;5.60;;
66609;SDS011;53468;48.276;14.416;2022-10-16T02:12:26;10.02;;;4.55;;
66609;SDS011;53468;48.276;14.416;2022-10-16T02:18:03;19.48;;;5.57;;
66609;SDS011;53468;48.276;14.416;2022-10-16T02:23:37;68.00;;;8.00;;
66609;SDS011;53468;48.276;14.416;2022-10-16T02:29:17;6.65;;;4.28;;
66609;SDS011;53468;48.276;14.416;2022-10-16T02:34:55;16.58;;;4.50;;
66609;SDS011;53468;48.276;14.416;2022-10-16T02:40:29;36.80;;;7.20;;
66609;SDS011;53468;48.276;14.416;2022-10-16T02:46:02;14.15;;;4.60;;
66609;SDS011;53468;48.276;14.416;2022-10-16T02:51:36;26.50;;;4.45;;
66609;SDS011;53468;48.276;14.416;2022-10-16T02:57:08;14.80;;;3.70;;
66609;SDS011;53468;48.276;14.416;2022-10-16T03:02:40;7.15;;;4.05;;
66609;SDS011;53468;48.276;14.416;2022-10-16T03:08:14;6.03;;;3.90;;
66609;SDS011;53468;48.276;14.416;2022-10-16T03:13:48;8.52;;;3.20;;
66609;SDS011;53468;48.276;14.416;2022-10-16T03:19:21;6.07;;;4.00;;
66609;SDS011;53468;48.276;14.416;2022-10-16T03:24:54;4.32;;;3.47;;
66609;SDS011;53468;48.276;14.416;2022-10-16T03:30:27;7.57;;;3.90;;
66609;SDS011;53468;48.276;14.416;2022-10-16T03:35:59;6.75;;;3.83;;
66609;SDS011;53468;48.276;14.416;2022-10-16T03:41:33;28.10;;;4.88;;
66609;SDS011;53468;48.276;14.416;2022-10-16T03:47:05;5.93;;;3.42;;
66609;SDS011;53468;48.276;14.416;2022-10-16T03:52:38;9.85;;;4.20;;
66609;SDS011;53468;48.276;14.416;2022-10-16T03:58:11;6.90;;;3.78;;
66609;SDS011;53468;48.276;14.416;2022-10-16T04:03:44;11.13;;;4.05;;
66609;SDS011;53468;48.276;14.416;2022-10-16T04:09:17;8.93;;;3.58;;
66609;SDS011;53468;48.276;14.416;2022-10-16T04:14:51;52.05;;;6.45;;
66609;SDS011;53468;48.276;14.416;2022-10-16T04:20:23;33.90;;;5.20;;
66609;SDS011;53468;48.276;14.416;2022-10-16T04:25:55;9.07;;;3.78;;
66609;SDS011;53468;48.276;14.416;2022-10-16T04:31:29;9.13;;;3.55;;
66609;SDS011;53468;48.276;14.416;2022-10-16T04:37:03;5.10;;;3.20;;
66609;SDS011;53468;48.276;14.416;2022-10-16T04:42:38;6.40;;;3.42;;
66609;SDS011;53468;48.276;14.416;2022-10-16T04:48:12;6.95;;;4.65;;
66609;SDS011;53468;48.276;14.416;2022-10-16T04:53:45;7.90;;;3.60;;
66609;SDS011;53468;48.276;14.416;2022-10-16T04:59:18;9.23;;;4.40;;
66609;SDS011;53468;48.276;14.416;2022-10-16T05:04:52;10.05;;;4.10;;
66609;SDS011;53468;48.276;14.416;2022-10-16T05:10:25;4.78;;;3.35;;
66609;SDS011;53468;48.276;14.416;2022-10-16T05:15:59;9.57;;;5.00;;
66609;SDS011;53468;48.276;14.416;2022-10-16T05:21:33;7.05;;;3.90;;
66609;SDS011;53468;48.276;14.416;2022-10-16T05:27:05;7.90;;;4.10;;
66609;SDS011;53468;48.276;14.416;2022-10-16T05:32:37;8.05;;;4.13;;
66609;SDS011;53468;48.276;14.416;2022-10-16T05:38:11;5.60;;;3.42;;
66609;SDS011;53468;48.276;14.416;2022-10-16T05:43:44;5.05;;;3.17;;
66609;SDS011;53468;48.276;14.416;2022-10-16T05:49:16;6.53;;;3.95;;
66609;SDS011;53468;48.276;14.416;2022-10-16T05:54:50;5.47;;;3.78;;
66609;SDS011;53468;48.276;14.416;2022-10-16T06:00:22;6.68;;;2.97;;
66609;SDS011;53468;48.276;14.416;2022-10-16T06:05:55;6.25;;;3.63;;
66609;SDS011;53468;48.276;14.416;2022-10-16T06:11:30;5.00;;;3.33;;
66609;SDS011;53468;48.276;14.416;2022-10-16T06:17:03;5.55;;;3.30;;
66609;SDS011;53468;48.276;14.416;2022-10-16T06:22:35;7.30;;;3.15;;
66609;SDS011;53468;48.276;14.416;2022-10-16T06:28:10;9.15;;;3.55;;
66609;SDS011;53468;48.276;14.416;2022-10-16T06:33:44;4.90;;;3.08;;
66609;SDS011;53468;48.276;14.416;2022-10-16T06:39:17;4.75;;;2.53;;
66609;SDS011;53468;48.276;14.416;2022-10-16T06:44:51;5.93;;;3.38;;
66609;SDS011;53468;48.276;14.416;2022-10-16T06:50:23;5.40;;;2.58;;
66609;SDS011;53468;48.276;14.416;2022-10-16T06:55:56;6.15;;;3.38;;
66609;SDS011;53468;48.276;14.416;2022-10-16T07:01:30;4.30;;;3.33;;
66609;SDS011;53468;48.276;14.416;2022-10-16T07:07:03;5.78;;;3.60;;
66609;SDS011;53468;48.276;14.416;2022-10-16T07:12:35;6.30;;;3.03;;
66609;SDS011;53468;48.276;14.416;2022-10-16T07:18:09;6.43;;;3.03;;
66609;SDS011;53468;48.276;14.416;2022-10-16T07:23:41;6.43;;;3.72;;
66609;SDS011;53468;48.276;14.416;2022-10-16T07:29:14;6.40;;;3.47;;
66609;SDS011;53468;48.276;14.416;2022-10-16T07:34:49;7.07;;;3.40;;
66609;SDS011;53468;48.276;14.416;2022-10-16T07:40:22;5.30;;;3.03;;
66609;SDS011;53468;48.276;14.416;2022-10-16T07:45:57;7.80;;;4.20;;
66609;SDS011;53468;48.276;14.416;2022-10-16T07:57:04;4.75;;;3.80;;
66609;SDS011;53468;48.276;14.416;2022-10-16T08:02:37;6.70;;;3.40;;
66609;SDS011;53468;48.276;14.416;2022-10-16T08:08:13;6.25;;;3.63;;
66609;SDS011;53468;48.276;14.416;2022-10-16T08:13:46;5.38;;;4.00;;
66609;SDS011;53468;48.276;14.416;2022-10-16T08:19:18;4.97;;;4.07;;
66609;SDS011;53468;48.276;14.416;2022-10-16T08:24:52;5.95;;;3.28;;
66609;SDS011;53468;48.276;14.416;2022-10-16T08:30:24;10.90;;;3.72;;
66609;SDS011;53468;48.276;14.416;2022-10-16T08:35:56;6.75;;;4.35;;
66609;SDS011;53468;48.276;14.416;2022-10-16T08:41:47;6.57;;;3.53;;
66609;SDS011;53468;48.276;14.416;2022-10-16T08:47:43;3.53;;;2.80;;
66609;SDS011;53468;48.276;14.416;2022-10-16T08:53:22;4.20;;;3.20;;
66609;SDS011;53468;48.276;14.416;2022-10-16T08:59:00;5.95;;;3.03;;
66609;SDS011;53468;48.276;14.416;2022-10-16T09:04:47;5.22;;;3.30;;
66609;SDS011;53468;48.276;14.416;2022-10-16T09:10:42;6.57;;;3.15;;
66609;SDS011;53468;48.276;14.416;2022-10-16T09:16:24;5.60;;;3.50;;
66609;SDS011;53468;48.276;14.416;2022-10-16T09:21:59;3.65;;;2.35;;
66609;SDS011;53468;48.276;14.416;2022-10-16T09:27:40;3.28;;;1.70;;
66609;SDS011;53468;48.276;14.416;2022-10-16T09:33:18;3.83;;;2.13;;
66609;SDS011;53468;48.276;14.416;2022-10-16T09:39:01;2.50;;;1.60;;
66609;SDS011;53468;48.276;14.416;2022-10-16T09:44:34;5.63;;;2.63;;
66609;SDS011;53468;48.276;14.416;2022-10-16T09:50:19;5.00;;;2.67;;
66609;SDS011;53468;48.276;14.416;2022-10-16T09:55:54;3.47;;;2.47;;
66609;SDS011;53468;48.276;14.416;2022-10-16T10:01:27;3.92;;;2.45;;
66609;SDS011;53468;48.276;14.416;2022-10-16T10:07:04;6.07;;;2.63;;
66609;SDS011;53468;48.276;14.416;2022-10-16T10:12:44;2.70;;;1.90;;
66609;SDS011;53468;48.276;14.416;2022-10-16T10:18:18;5.97;;;2.05;;
66609;SDS011;53468;48.276;14.416;2022-10-16T10:23:56;3.95;;;2.35;;
66609;SDS011;53468;48.276;14.416;2022-10-16T10:29:35;3.15;;;2.08;;
66609;SDS011;53468;48.276;14.416;2022-10-16T10:35:17;4.18;;;1.55;;
66609;SDS011;53468;48.276;14.416;2022-10-16T10:40:58;3.03;;;1.88;;
66609;SDS011;53468;48.276;14.416;2022-10-16T10:46:48;119.97;;;59.88;;
66609;SDS011;53468;48.276;14.416;2022-10-16T10:52:30;7.35;;;3.10;;
66609;SDS011;53468;48.276;14.416;2022-10-16T10:58:27;3.13;;;2.20;;
66609;SDS011;53468;48.276;14.416;2022-10-16T11:04:25;3.90;;;2.22;;
66609;SDS011;53468;48.276;14.416;2022-10-16T11:10:17;3.30;;;2.15;;
66609;SDS011;53468;48.276;14.416;2022-10-16T11:15:55;2.88;;;1.75;;
66609;SDS011;53468;48.276;14.416;2022-10-16T11:21:30;4.70;;;1.60;;
66609;SDS011;53468;48.276;14.416;2022-10-16T11:27:09;3.33;;;1.70;;
66609;SDS011;53468;48.276;14.416;2022-10-16T11:32:56;2.65;;;1.52;;
66609;SDS011;53468;48.276;14.416;2022-10-16T11:38:38;2.05;;;1.17;;
66609;SDS011;53468;48.276;14.416;2022-10-16T11:44:17;2.33;;;1.50;;
66609;SDS011;53468;48.276;14.416;2022-10-16T11:50:01;2.10;;;1.40;;
66609;SDS011;53468;48.276;14.416;2022-10-16T11:55:40;2.63;;;1.17;;
66609;SDS011;53468;48.276;14.416;2022-10-16T12:01:16;2.85;;;1.50;;
66609;SDS011;53468;48.276;14.416;2022-10-16T12:06:52;3.63;;;1.77;;
66609;SDS011;53468;48.276;14.416;2022-10-16T12:12:37;4.78;;;1.75;;
66609;SDS011;53468;48.276;14.416;2022-10-16T12:18:20;3.45;;;1.80;;
66609;SDS011;53468;48.276;14.416;2022-10-16T12:23:54;3.63;;;1.63;;
66609;SDS011;53468;48.276;14.416;2022-10-16T12:29:32;3.55;;;1.73;;
66609;SDS011;53468;48.276;14.416;2022-10-16T12:35:16;1.80;;;1.10;;
66609;SDS011;53468;48.276;14.416;2022-10-16T12:40:56;2.15;;;1.05;;
66609;SDS011;53468;48.276;14.416;2022-10-16T12:46:35;2.47;;;0.93;;
66609;SDS011;53468;48.276;14.416;2022-10-16T12:52:23;1.88;;;1.20;;
66609;SDS011;53468;48.276;14.416;2022-10-16T12:58:03;1.60;;;1.08;;
66609;SDS011;53468;48.276;14.416;2022-10-16T13:04:03;1.40;;;0.80;;
66609;SDS011;53468;48.276;14.416;2022-10-16T13:09:48;2.07;;;1.00;;
66609;SDS011;53468;48.276;14.416;2022-10-16T13:15:34;2.28;;;0.98;;
66609;SDS011;53468;48.276;14.416;2022-10-16T13:21:23;1.65;;;0.75;;
66609;SDS011;53468;48.276;14.416;2022-10-16T13:27:05;2.40;;;0.80;;
66609;SDS011;53468;48.276;14.416;2022-10-16T13:32:45;2.30;;;0.90;;
66609;SDS011;53468;48.276;14.416;2022-10-16T13:38:19;2.50;;;0.90;;
66609;SDS011;53468;48.276;14.416;2022-10-16T13:43:53;1.17;;;0.52;;
66609;SDS011;53468;48.276;14.416;2022-10-16T13:49:28;1.52;;;0.73;;
66609;SDS011;53468;48.276;14.416;2022-10-16T13:55:00;1.20;;;0.60;;
66609;SDS011;53468;48.276;14.416;2022-10-16T14:00:33;1.00;;;0.60;;
66609;SDS011;53468;48.276;14.416;2022-10-16T14:06:10;1.38;;;0.90;;
66609;SDS011;53468;48.276;14.416;2022-10-16T14:11:46;3.10;;;0.97;;
66609;SDS011;53468;48.276;14.416;2022-10-16T14:17:22;1.20;;;0.80;;
66609;SDS011;53468;48.276;14.416;2022-10-16T14:22:59;3.67;;;0.75;;
66609;SDS011;53468;48.276;14.416;2022-10-16T14:28:32;5.47;;;0.82;;
66609;SDS011;53468;48.276;14.416;2022-10-16T14:34:22;2.22;;;1.00;;
66609;SDS011;53468;48.276;14.416;2022-10-16T14:40:00;2.17;;;0.70;;
66609;SDS011;53468;48.276;14.416;2022-10-16T14:45:34;3.45;;;0.80;;
66609;SDS011;53468;48.276;14.416;2022-10-16T14:51:08;2.08;;;0.73;;
66609;SDS011;53468;48.276;14.416;2022-10-16T14:56:49;3.03;;;0.70;;
66609;SDS011;53468;48.276;14.416;2022-10-16T15:02:25;4.20;;;0.80;;
66609;SDS011;53468;48.276;14.416;2022-10-16T15:08:01;4.60;;;0.80;;
66609;SDS011;53468;48.276;14.416;2022-10-16T15:13:37;5.25;;;0.73;;
66609;SDS011;53468;48.276;14.416;2022-10-16T15:19:09;3.05;;;0.70;;
66609;SDS011;53468;48.276;14.416;2022-10-16T15:24:41;3.80;;;0.68;;
66609;SDS011;53468;48.276;14.416;2022-10-16T15:30:14;4.30;;;1.00;;
66609;SDS011;53468;48.276;14.416;2022-10-16T15:35:46;7.25;;;1.40;;
66609;SDS011;53468;48.276;14.416;2022-10-16T15:41:19;7.82;;;1.42;;
66609;SDS011;53468;48.276;14.416;2022-10-16T15:46:53;6.50;;;1.05;;
66609;SDS011;53468;48.276;14.416;2022-10-16T15:52:26;2.65;;;0.60;;
66609;SDS011;53468;48.276;14.416;2022-10-16T15:57:59;1.58;;;0.85;;
66609;SDS011;53468;48.276;14.416;2022-10-16T16:03:32;4.75;;;1.25;;
66609;SDS011;53468;48.276;14.416;2022-10-16T16:14:55;3.63;;;1.30;;
66609;SDS011;53468;48.276;14.416;2022-10-16T16:20:28;10.07;;;1.63;;
66609;SDS011;53468;48.276;14.416;2022-10-16T16:26:04;3.70;;;1.58;;
66609;SDS011;53468;48.276;14.416;2022-10-16T16:31:40;3.55;;;1.02;;
66609;SDS011;53468;48.276;14.416;2022-10-16T16:37:14;9.95;;;1.60;;
66609;SDS011;53468;48.276;14.416;2022-10-16T16:42:47;7.43;;;1.42;;
66609;SDS011;53468;48.276;14.416;2022-10-16T16:48:20;6.10;;;1.83;;
66609;SDS011;53468;48.276;14.416;2022-10-16T16:53:54;4.32;;;1.33;;
66609;SDS011;53468;48.276;14.416;2022-10-16T16:59:26;7.45;;;1.73;;
66609;SDS011;53468;48.276;14.416;2022-10-16T17:05:00;3.72;;;1.70;;
66609;SDS011;53468;48.276;14.416;2022-10-16T17:10:33;5.38;;;1.60;;
66609;SDS011;53468;48.276;14.416;2022-10-16T17:16:05;5.72;;;2.20;;
66609;SDS011;53468;48.276;14.416;2022-10-16T17:21:38;4.63;;;2.55;;
66609;SDS011;53468;48.276;14.416;2022-10-16T17:27:13;6.07;;;2.90;;
66609;SDS011;53468;48.276;14.416;2022-10-16T17:32:49;5.85;;;2.35;;
66609;SDS011;53468;48.276;14.416;2022-10-16T17:38:21;7.00;;;3.67;;
66609;SDS011;53468;48.276;14.416;2022-10-16T17:43:55;8.82;;;3.45;;
66609;SDS011;53468;48.276;14.416;2022-10-16T17:49:27;8.23;;;4.50;;
66609;SDS011;53468;48.276;14.416;2022-10-16T17:54:59;13.23;;;6.65;;
66609;SDS011;53468;48.276;14.416;2022-10-16T18:00:33;18.23;;;8.77;;
66609;SDS011;53468;48.276;14.416;2022-10-16T18:06:05;15.10;;;9.45;;
66609;SDS011;53468;48.276;14.416;2022-10-16T18:11:37;17.02;;;9.80;;
66609;SDS011;53468;48.276;14.416;2022-10-16T18:17:12;16.00;;;10.25;;
66609;SDS011;53468;48.276;14.416;2022-10-16T18:22:45;18.17;;;10.88;;
66609;SDS011;53468;48.276;14.416;2022-10-16T18:28:17;22.30;;;13.30;;
66609;SDS011;53468;48.276;14.416;2022-10-16T18:33:52;20.75;;;13.00;;
66609;SDS011;53468;48.276;14.416;2022-10-16T18:39:25;20.27;;;13.00;;
66609;SDS011;53468;48.276;14.416;2022-10-16T18:44:57;19.55;;;11.43;;
66609;SDS011;53468;48.276;14.416;2022-10-16T18:50:32;21.25;;;12.75;;
66609;SDS011;53468;48.276;14.416;2022-10-16T18:56:04;21.35;;;14.20;;
66609;SDS011;53468;48.276;14.416;2022-10-16T19:01:37;25.85;;;12.93;;
66609;SDS011;53468;48.276;14.416;2022-10-16T19:07:13;14.73;;;10.88;;
66609;SDS011;53468;48.276;14.416;2022-10-16T19:12:46;21.30;;;12.90;;
66609;SDS011;53468;48.276;14.416;2022-10-16T19:18:18;24.20;;;12.50;;
66609;SDS011;53468;48.276;14.416;2022-10-16T19:23:52;28.83;;;14.63;;
66609;SDS011;53468;48.276;14.416;2022-10-16T19:29:26;22.92;;;13.85;;
66609;SDS011;53468;48.276;14.416;2022-10-16T19:35:00;25.23;;;14.25;;
66609;SDS011;53468;48.276;14.416;2022-10-16T19:40:33;37.47;;;17.70;;
66609;SDS011;53468;48.276;14.416;2022-10-16T19:46:06;22.30;;;11.05;;
66609;SDS011;53468;48.276;14.416;2022-10-16T19:51:39;19.48;;;12.10;;
66609;SDS011;53468;48.276;14.416;2022-10-16T19:57:13;23.35;;;11.85;;
66609;SDS011;53468;48.276;14.416;2022-10-16T20:02:45;17.88;;;11.10;;
66609;SDS011;53468;48.276;14.416;2022-10-16T20:08:19;15.88;;;8.50;;
66609;SDS011;53468;48.276;14.416;2022-10-16T20:13:54;15.32;;;8.85;;
66609;SDS011;53468;48.276;14.416;2022-10-16T20:19:28;17.25;;;9.32;;
66609;SDS011;53468;48.276;14.416;2022-10-16T20:25:02;21.02;;;13.00;;
66609;SDS011;53468;48.276;14.416;2022-10-16T20:30:41;30.42;;;14.00;;
66609;SDS011;53468;48.276;14.416;2022-10-16T20:36:15;27.88;;;13.80;;
66609;SDS011;53468;48.276;14.416;2022-10-16T20:41:50;30.27;;;14.32;;
66609;SDS011;53468;48.276;14.416;2022-10-16T20:47:24;26.45;;;14.95;;
66609;SDS011;53468;48.276;14.416;2022-10-16T20:52:58;28.88;;;16.95;;
66609;SDS011;53468;48.276;14.416;2022-10-16T20:58:31;31.38;;;16.17;;
66609;SDS011;53468;48.276;14.416;2022-10-16T21:04:11;27.15;;;15.20;;
66609;SDS011;53468;48.276;14.416;2022-10-16T21:09:44;30.65;;;15.75;;
66609;SDS011;53468;48.276;14.416;2022-10-16T21:15:17;46.22;;;21.17;;
66609;SDS011;53468;48.276;14.416;2022-10-16T21:20:52;34.05;;;18.65;;
66609;SDS011;53468;48.276;14.416;2022-10-16T21:26:26;66.95;;;26.33;;
66609;SDS011;53468;48.276;14.416;2022-10-16T21:32:20;56.13;;;24.55;;
66609;SDS011;53468;48.276;14.416;2022-10-16T21:38:09;42.45;;;20.90;;
66609;SDS011;53468;48.276;14.416;2022-10-16T21:43:45;62.65;;;27.95;;
66609;SDS011;53468;48.276;14.416;2022-10-16T21:49:33;52.80;;;21.83;;
66609;SDS011;53468;48.276;14.416;2022-10-16T21:55:12;58.15;;;24.92;;
66609;SDS011;53468;48.276;14.416;2022-10-16T22:01:04;46.40;;;22.65;;
66609;SDS011;53468;48.276;14.416;2022-10-16T22:06:39;67.17;;;28.87;;
66609;SDS011;53468;48.276;14.416;2022-10-16T22:12:15;49.25;;;25.20;;
66609;SDS011;53468;48.276;14.416;2022-10-16T22:17:49;44.78;;;23.40;;
66609;SDS011;53468;48.276;14.416;2022-10-16T22:23:22;95.90;;;27.75;;
66609;SDS011;53468;48.276;14.416;2022-10-16T22:41:12;44.08;;;21.88;;
66609;SDS011;53468;48.276;14.416;2022-10-16T22:47:00;40.10;;;20.00;;
66609;SDS011;53468;48.276;14.416;2022-10-16T22:52:41;26.40;;;13.40;;
66609;SDS011;53468;48.276;14.416;2022-10-16T22:58:13;27.00;;;13.05;;
66609;SDS011;53468;48.276;14.416;2022-10-16T23:03:46;17.73;;;8.77;;
66609;SDS011;53468;48.276;14.416;2022-10-16T23:09:20;18.85;;;8.77;;
66609;SDS011;53468;48.276;14.416;2022-10-16T23:14:54;13.30;;;5.97;;
66609;SDS011;53468;48.276;14.416;2022-10-16T23:20:26;13.05;;;7.47;;
66609;SDS011;53468;48.276;14.416;2022-10-16T23:26:01;12.00;;;6.03;;
66609;SDS011;53468;48.276;14.416;2022-10-16T23:31:34;9.45;;;5.97;;
66609;SDS011;53468;48.276;14.416;2022-10-16T23:37:06;9.43;;;5.43;;
66609;SDS011;53468;48.276;14.416;2022-10-16T23:42:41;11.65;;;5.50;;
66609;SDS011;53468;48.276;14.416;2022-10-16T23:48:14;6.13;;;3.70;;
66609;SDS011;53468;48.276;14.416;2022-10-16T23:53:48;9.20;;;4.07;;
66609;SDS011;53468;48.276;14.416;2022-10-16T23:59:23;7.05;;;4.20;;
